Flight Track Log - Related Links

Times and Time Zones

All times are in EST time to prevent confusion due to time zone crossing. See the SWA4703 flight status page for this flight to view local times or setup timezone preferences in your user account.

Time Position Orientation Groundspeed Altitude Reporting Facility
EST Latitude Longitude Course Direction KTS MPH feet Rate Location/Type
Thu 10:44:26 PM 39.1833 -76.7333 127° Southeast 176 203 3,000  Level Potomac TRACON
Thu 10:46:31 PM 39.1236 -76.6297 127° Southeast 133 153 9,200 2,951 Climbing Washington Center
Thu 10:47:29 PM 39.1328 -76.5067 84° East 247 284 12,000 3,179 Climbing Washington Center
Thu 10:48:28 PM 39.1422 -76.3731 85° East 309 356 15,400 3,200 Climbing Washington Center
Thu 10:49:29 PM 39.1514 -76.2258 85° East 367 422 18,400 2,777 Climbing Washington Center
Thu 10:50:29 PM 39.1686 -76.0894 81° East 413 475 21,000 2,430 Climbing Washington Center
Thu 10:51:30 PM 39.1881 -75.9289 81° East 435 501 23,300 2,471 Climbing Washington Center
Thu 10:52:28 PM 39.2528 -75.8061 56° Northeast 425 489 25,900 2,650 Climbing Washington Center
Thu 10:53:30 PM 39.3364 -75.6989 45° Northeast 409 471 28,600 1,550 Climbing Washington Center
Thu 10:54:28 PM 39.4197 -75.5889 46° Northeast 415 478 29,000 133 Climbing Washington Center
Thu 10:56:30 PM 39.5947 -75.3617 45° Northeast 448 516 29,000  Level New York Center
Thu 10:57:30 PM 39.6847 -75.2408 46° Northeast 462 532 29,000  Level New York Center
Thu 10:58:31 PM 39.7767 -75.1250 44° Northeast 462 532 29,000  Level New York Center
Thu 10:59:32 PM 39.8683 -75.0144 43° Northeast 451 519 29,000  Level New York Center
Thu 11:00:30 PM 39.9708 -74.8906 43° Northeast 451 519 29,000  Level New York Center
Thu 11:01:30 PM 40.0622 -74.7767 44° Northeast 442 509 29,000  Level New York Center
Thu 11:02:32 PM 40.1514 -74.6678 43° Northeast 447 514 29,000  Level New York Center
Thu 11:03:32 PM 40.2339 -74.5636 44° Northeast 447 514 29,000  Level New York Center
Thu 11:04:32 PM 40.3339 -74.4386 44° Northeast 447 514 29,000  Level New York Center
Thu 11:05:30 PM 40.4206 -74.3258 45° Northeast 447 514 29,000 -353 Level New York Center
Thu 11:06:31 PM 40.5189 -74.2408 33° Northeast 440 506 28,300 -896 Descending New York Center
Thu 11:08:04 PM 40.6817 -74.2081 North 379 436 26,700 -902 Descending Boston Center
Thu 11:09:04 PM 40.7736 -74.1914 North 366 421 26,000 -350 Descending Boston Center
Thu 11:10:04 PM 40.8678 -74.1692 10° North 361 415 26,000  Level Boston Center
Thu 11:11:04 PM 40.9681 -74.1497 North 356 410 26,000  Level Boston Center
Thu 11:12:04 PM 41.0603 -74.1275 10° North 349 402 26,000  Level Boston Center
Thu 11:13:04 PM 41.1564 -74.1081 North 344 396 26,000  Level Boston Center
Thu 11:14:04 PM 41.2506 -74.0883 North 344 396 26,000  Level Boston Center
Thu 11:15:04 PM 41.3444 -74.0658 10° North 344 396 26,000 -750 Level Boston Center
Thu 11:16:04 PM 41.4428 -74.0461 North 344 396 24,500 -1,700 Descending Boston Center
Thu 11:17:04 PM 41.5369 -74.0236 10° North 355 409 22,600 -1,850 Descending Boston Center
Thu 11:18:04 PM 41.6372 -74.0011 10° North 349 402 20,800 -1,850 Descending Boston Center
Thu 11:19:04 PM 41.7231 -73.9839 North 329 379 18,900 -1,750 Descending Boston Center
Thu 11:20:04 PM 41.7983 -73.9661 10° North 301 346 17,300 -1,700 Descending Boston Center
Thu 11:21:04 PM 41.8922 -73.9461 North 294 338 15,500 -1,794 Descending Boston Center
Thu 11:21:41 PM 41.9403 -73.9389 North 301 346 14,400 -1,600 Descending Boston Center
Thu 11:22:04 PM 41.9633 -73.9311 14° North 294 338 13,900 -1,574 Descending Boston Center
Thu 11:22:42 PM 42.0219 -73.9183 North 295 339 12,800 -1,700 Descending Boston Center
Thu 11:23:04 PM 42.0511 -73.9136 North 288 331 12,200 -1,667 Descending Boston Center
Thu 11:23:36 PM 42.0931 -73.9033 10° North 282 325 11,300 -1,200 Descending Boston Center
Thu 11:24:04 PM 42.1286 -73.8931 12° North 288 331 11,000 -295 Descending Boston Center
Thu 11:24:37 PM 42.1681 -73.8856 North 272 313 11,000 -700 Level Boston Center
Thu 11:25:04 PM 42.1933 -73.8806 North 266 306 10,300 -1,800 Descending Boston Center
Thu 11:25:37 PM 42.2372 -73.8703 10° North 249 287 9,200 -1,900 Descending Boston Center
Thu 11:26:04 PM 42.2706 -73.8625 10° North 253 291 8,400 -1,770 Descending Boston Center
Thu 11:26:38 PM 42.3103 -73.8550 North 257 296 7,400 -1,389 Descending Boston Center
Thu 11:27:39 PM 42.3814 -73.8369 11° North 262 302 6,200 -1,190 Descending Boston Center
Thu 11:28:39 PM 42.4483 -73.8217 10° North 242 278 5,000 -1,041 Descending Boston Center
Thu 11:29:40 PM 42.5089 -73.8061 11° North 225 259 4,100 -793 Descending Boston Center
Thu 11:30:40 PM 42.5653 -73.7989 North 200 230 3,400 -645 Descending Boston Center
Thu 11:31:41 PM 42.6172 -73.8000 359° North 174 200 2,800 -738 Descending Boston Center
Thu 11:32:42 PM 42.6631 -73.8039 356° North 153 176 1,900 -843 Descending Boston Center
Thu 11:33:42 PM 42.6986 -73.8044 359° North 118 136 1,100 -744 Descending Boston Center
Thu 11:34:43 PM 42.7339 -73.8081 356° North 126 145 400 -689 Descending Boston Center

Login

Don't have an account? Register now (free) for customized features, flight alerts, and more!